Station Historical Data
Daily Summary for January 15, 2017 Units:  Both    English   Metric
« Previous Day
Next Day »
Daily Weekly Monthly Yearly Custom
  High: Low: Average:
Temperature: 31.9 °F /  -0.1 °C 20.0 °F /  -6.7 °C 25.5 °F /  -3.6 °C
Dew Point: 22.8 °F /  -5.1 °C 16.9 °F /  -8.4 °C 19.9 °F /  -6.7 °C
Humidity: 88% 65% 80%
Wind Speed: 8.0mph /  12.9km/h - 1.6mph /  2.6km/h
Wind Gust: 9.0mph /  14.5km/h - -
Wind- - WSW
Pressure: 30.47 in /  1031.7 hPa 30.39 in /  1029 hPa -
Precipitation: 0.00 in /  0 mm    
Historical Graphs
 
 
Tabular Data for January 15, 2017
Time Temperature Dew Point Pressure Wind Wind Speed Wind Gust Humidity Rainfall Rate (Hourly)
00:04 24.8 °F /  -4 °C 18.6 °F /  -7.4 °C 30.40in /  1029.3hPa West 2.0mph /  3.2km/h 6.0mph /  9.7km/h 77% 0.00in /  0mm
00:09 24.8 °F /  -4 °C 18.6 °F /  -7.4 °C 30.40in /  1029.3hPa West 3.0mph /  4.8km/h 6.0mph /  9.7km/h 77% 0.00in /  0mm
00:14 24.8 °F /  -4 °C 18.9 °F /  -7.3 °C 30.40in /  1029.3hPa West 3.0mph /  4.8km/h 7.0mph /  11.3km/h 78% 0.00in /  0mm
00:19 24.8 °F /  -4 °C 18.9 °F /  -7.3 °C 30.40in /  1029.3hPa West 3.0mph /  4.8km/h 7.0mph /  11.3km/h 78% 0.00in /  0mm
00:24 24.9 °F /  -3.9 °C 19.0 °F /  -7.2 °C 30.40in /  1029.3hPa West 1.0mph /  1.6km/h 6.0mph /  9.7km/h 78% 0.00in /  0mm
00:29 24.9 °F /  -3.9 °C 19.0 °F /  -7.2 °C 30.40in /  1029.3hPa WSW 2.0mph /  3.2km/h 8.0mph /  12.9km/h 78% 0.00in /  0mm
00:34 25.0 °F /  -3.9 °C 19.1 °F /  -7.2 °C 30.40in /  1029.3hPa West 3.0mph /  4.8km/h 7.0mph /  11.3km/h 78% 0.00in /  0mm
00:39 25.0 °F /  -3.9 °C 19.1 °F /  -7.2 °C 30.40in /  1029.3hPa WSW 3.0mph /  4.8km/h 8.0mph /  12.9km/h 78% 0.00in /  0mm
00:44 24.9 °F /  -3.9 °C 19.0 °F /  -7.2 °C 30.40in /  1029.3hPa WSW 3.0mph /  4.8km/h 7.0mph /  11.3km/h 78% 0.00in /  0mm
00:49 24.9 °F /  -3.9 °C 19.0 °F /  -7.2 °C 30.40in /  1029.3hPa SW 3.0mph /  4.8km/h 9.0mph /  14.5km/h 78% 0.00in /  0mm
00:54 24.9 °F /  -3.9 °C 19.3 °F /  -7.1 °C 30.40in /  1029.3hPa West 4.0mph /  6.4km/h 9.0mph /  14.5km/h 79% 0.00in /  0mm
00:59 25.0 °F /  -3.9 °C 19.4 °F /  -7 °C 30.40in /  1029.3hPa West 4.0mph /  6.4km/h 8.0mph /  12.9km/h 79% 0.00in /  0mm
01:05 25.0 °F /  -3.9 °C 19.4 °F /  -7 °C 30.40in /  1029.3hPa West 4.0mph /  6.4km/h 7.0mph /  11.3km/h 79% 0.00in /  0mm
01:10 24.9 °F /  -3.9 °C 19.3 °F /  -7.1 °C 30.40in /  1029.3hPa WSW 4.0mph /  6.4km/h 8.0mph /  12.9km/h 79% 0.00in /  0mm
01:15 25.1 °F /  -3.8 °C 19.5 °F /  -6.9 °C 30.40in /  1029.3hPa West 4.0mph /  6.4km/h 8.0mph /  12.9km/h 79% 0.00in /  0mm
01:20 25.0 °F /  -3.9 °C 19.4 °F /  -7 °C 30.40in /  1029.3hPa West 7.0mph /  11.3km/h 8.0mph /  12.9km/h 79% 0.00in /  0mm
01:25 25.0 °F /  -3.9 °C 19.4 °F /  -7 °C 30.40in /  1029.3hPa WSW 3.0mph /  4.8km/h 9.0mph /  14.5km/h 79% 0.00in /  0mm
01:30 24.9 °F /  -3.9 °C 19.6 °F /  -6.9 °C 30.40in /  1029.3hPa WSW 4.0mph /  6.4km/h 9.0mph /  14.5km/h 80% 0.00in /  0mm
01:35 24.8 °F /  -4 °C 19.5 °F /  -6.9 °C 30.40in /  1029.3hPa West 2.0mph /  3.2km/h 5.0mph /  8km/h 80% 0.00in /  0mm
01:40 24.6 °F /  -4.1 °C 19.3 °F /  -7.1 °C 30.40in /  1029.3hPa WSW 3.0mph /  4.8km/h 6.0mph /  9.7km/h 80% 0.00in /  0mm
01:45 24.6 °F /  -4.1 °C 19.3 °F /  -7.1 °C 30.40in /  1029.3hPa WSW 2.0mph /  3.2km/h 6.0mph /  9.7km/h 80% 0.00in /  0mm
01:50 24.4 °F /  -4.2 °C 19.4 °F /  -7 °C 30.40in /  1029.3hPa West 3.0mph /  4.8km/h 6.0mph /  9.7km/h 81% 0.00in /  0mm
01:55 24.4 °F /  -4.2 °C 19.4 °F /  -7 °C 30.39in /  1029hPa West 3.0mph /  4.8km/h 6.0mph /  9.7km/h 81% 0.00in /  0mm
02:00 24.3 °F /  -4.3 °C 19.3 °F /  -7.1 °C 30.40in /  1029.3hPa WSW 2.0mph /  3.2km/h 4.0mph /  6.4km/h 81% 0.00in /  0mm
02:05 24.2 °F /  -4.3 °C 19.2 °F /  -7.1 °C 30.40in /  1029.3hPa West 1.0mph /  1.6km/h 5.0mph /  8km/h 81% 0.00in /  0mm
02:10 24.1 °F /  -4.4 °C 19.4 °F /  -7 °C 30.40in /  1029.3hPa West 2.0mph /  3.2km/h 6.0mph /  9.7km/h 82% 0.00in /  0mm
02:15 24.1 °F /  -4.4 °C 19.4 °F /  -7 °C 30.40in /  1029.3hPa WSW 2.0mph /  3.2km/h 6.0mph /  9.7km/h 82% 0.00in /  0mm
02:20 23.9 °F /  -4.5 °C 19.2 °F /  -7.1 °C 30.41in /  1029.7hPa WSW 2.0mph /  3.2km/h 5.0mph /  8km/h 82% 0.00in /  0mm
02:25 23.7 °F /  -4.6 °C 19.0 °F /  -7.2 °C 30.41in /  1029.7hPa West 2.0mph /  3.2km/h 5.0mph /  8km/h 82% 0.00in /  0mm
02:30 23.7 °F /  -4.6 °C 19.3 °F /  -7.1 °C 30.41in /  1029.7hPa West 2.0mph /  3.2km/h 6.0mph /  9.7km/h 83% 0.00in /  0mm
02:35 23.7 °F /  -4.6 °C 19.3 °F /  -7.1 °C 30.41in /  1029.7hPa WSW 1.0mph /  1.6km/h 3.0mph /  4.8km/h 83% 0.00in /  0mm
02:40 23.5 °F /  -4.7 °C 19.1 °F /  -7.2 °C 30.41in /  1029.7hPa WSW 1.0mph /  1.6km/h 5.0mph /  8km/h 83% 0.00in /  0mm
02:45 23.5 °F /  -4.7 °C 19.1 °F /  -7.2 °C 30.41in /  1029.7hPa WSW 2.0mph /  3.2km/h 4.0mph /  6.4km/h 83% 0.00in /  0mm
02:50 23.5 °F /  -4.7 °C 19.1 °F /  -7.2 °C 30.41in /  1029.7hPa WSW 2.0mph /  3.2km/h 4.0mph /  6.4km/h 83% 0.00in /  0mm
02:55 23.4 °F /  -4.8 °C 19.3 °F /  -7.1 °C 30.41in /  1029.7hPa West 2.0mph /  3.2km/h 4.0mph /  6.4km/h 84% 0.00in /  0mm
03:00 23.5 °F /  -4.7 °C 19.4 °F /  -7 °C 30.41in /  1029.7hPa West 2.0mph /  3.2km/h 4.0mph /  6.4km/h 84% 0.00in /  0mm
03:05 23.4 °F /  -4.8 °C 19.3 °F /  -7.1 °C 30.41in /  1029.7hPa WSW 3.0mph /  4.8km/h 4.0mph /  6.4km/h 84% 0.00in /  0mm
03:10 23.3 °F /  -4.8 °C 19.2 °F /  -7.1 °C 30.41in /  1029.7hPa WSW 1.0mph /  1.6km/h 4.0mph /  6.4km/h 84% 0.00in /  0mm
03:15 23.3 °F /  -4.8 °C 19.2 °F /  -7.1 °C 30.41in /  1029.7hPa West 1.0mph /  1.6km/h 3.0mph /  4.8km/h 84% 0.00in /  0mm
03:20 23.2 °F /  -4.9 °C 19.1 °F /  -7.2 °C 30.41in /  1029.7hPa WSW 2.0mph /  3.2km/h 5.0mph /  8km/h 84% 0.00in /  0mm
03:25 23.2 °F /  -4.9 °C 19.1 °F /  -7.2 °C 30.41in /  1029.7hPa WSW 2.0mph /  3.2km/h 5.0mph /  8km/h 84% 0.00in /  0mm
03:30 23.3 °F /  -4.8 °C 19.2 °F /  -7.1 °C 30.41in /  1029.7hPa West 1.0mph /  1.6km/h 6.0mph /  9.7km/h 84% 0.00in /  0mm
03:35 23.3 °F /  -4.8 °C 19.2 °F /  -7.1 °C 30.41in /  1029.7hPa West 1.0mph /  1.6km/h 6.0mph /  9.7km/h 84% 0.00in /  0mm
03:40 23.2 °F /  -4.9 °C 19.1 °F /  -7.2 °C 30.41in /  1029.7hPa WSW 3.0mph /  4.8km/h 5.0mph /  8km/h 84% 0.00in /  0mm
03:45 23.1 °F /  -4.9 °C 19.3 °F /  -7.1 °C 30.40in /  1029.3hPa WSW 1.0mph /  1.6km/h 3.0mph /  4.8km/h 85% 0.00in /  0mm
03:50 23.1 °F /  -4.9 °C 19.3 °F /  -7.1 °C 30.40in /  1029.3hPa WSW 2.0mph /  3.2km/h 5.0mph /  8km/h 85% 0.00in /  0mm
03:55 23.1 °F /  -4.9 °C 19.3 °F /  -7.1 °C 30.40in /  1029.3hPa WSW 2.0mph /  3.2km/h 5.0mph /  8km/h 85% 0.00in /  0mm
04:00 23.0 °F /  -5 °C 19.2 °F /  -7.1 °C 30.40in /  1029.3hPa WSW 2.0mph /  3.2km/h 4.0mph /  6.4km/h 85% 0.00in /  0mm
04:05 22.8 °F /  -5.1 °C 19.0 °F /  -7.2 °C 30.40in /  1029.3hPa WSW 2.0mph /  3.2km/h 4.0mph /  6.4km/h 85% 0.00in /  0mm
04:10 22.6 °F /  -5.2 °C 18.8 °F /  -7.3 °C 30.40in /  1029.3hPa Calm   3.0mph /  4.8km/h 85% 0.00in /  0mm
04:15 22.4 °F /  -5.3 °C 18.6 °F /  -7.4 °C 30.40in /  1029.3hPa WSW 1.0mph /  1.6km/h 2.0mph /  3.2km/h 85% 0.00in /  0mm
04:20 22.2 °F /  -5.4 °C 18.4 °F /  -7.6 °C 30.40in /  1029.3hPa Calm   2.0mph /  3.2km/h 85% 0.00in /  0mm
04:25 21.8 °F /  -5.7 °C 18.0 °F /  -7.8 °C 30.39in /  1029hPa WSW 1.0mph /  1.6km/h 2.0mph /  3.2km/h 85% 0.00in /  0mm
04:30 21.6 °F /  -5.8 °C 18.1 °F /  -7.7 °C 30.40in /  1029.3hPa WSW 1.0mph /  1.6km/h 3.0mph /  4.8km/h 86% 0.00in /  0mm
04:35 21.7 °F /  -5.7 °C 18.2 °F /  -7.7 °C 30.40in /  1029.3hPa WSW 1.0mph /  1.6km/h 3.0mph /  4.8km/h 86% 0.00in /  0mm
04:39 21.6 °F /  -5.8 °C 18.3 °F /  -7.6 °C 30.40in /  1029.3hPa Calm   2.0mph /  3.2km/h 87% 0.00in /  0mm
04:45 21.7 °F /  -5.7 °C 18.4 °F /  -7.6 °C 30.40in /  1029.3hPa Calm     87% 0.00in /  0mm
04:50 21.7 °F /  -5.7 °C 18.4 °F /  -7.6 °C 30.40in /  1029.3hPa West 1.0mph /  1.6km/h 3.0mph /  4.8km/h 87% 0.00in /  0mm
04:54 21.6 °F /  -5.8 °C 18.3 °F /  -7.6 °C 30.41in /  1029.7hPa West 1.0mph /  1.6km/h 3.0mph /  4.8km/h 87% 0.00in /  0mm
05:00 21.5 °F /  -5.8 °C 18.2 °F /  -7.7 °C 30.41in /  1029.7hPa West 1.0mph /  1.6km/h 3.0mph /  4.8km/h 87% 0.00in /  0mm
05:05 21.3 °F /  -5.9 °C 18.0 °F /  -7.8 °C 30.41in /  1029.7hPa Calm   1.0mph /  1.6km/h 87% 0.00in /  0mm
05:10 21.2 °F /  -6 °C 17.9 °F /  -7.8 °C 30.41in /  1029.7hPa Calm   1.0mph /  1.6km/h 87% 0.00in /  0mm
05:15 21.3 °F /  -5.9 °C 18.3 °F /  -7.6 °C 30.41in /  1029.7hPa Calm   3.0mph /  4.8km/h 88% 0.00in /  0mm
05:20 21.5 °F /  -5.8 °C 18.5 °F /  -7.5 °C 30.41in /  1029.7hPa Calm   3.0mph /  4.8km/h 88% 0.00in /  0mm
05:24 21.5 °F /  -5.8 °C 18.2 °F /  -7.7 °C 30.41in /  1029.7hPa WSW 1.0mph /  1.6km/h 3.0mph /  4.8km/h 87% 0.00in /  0mm
05:30 21.5 °F /  -5.8 °C 18.2 °F /  -7.7 °C 30.41in /  1029.7hPa WSW 1.0mph /  1.6km/h 3.0mph /  4.8km/h 87% 0.00in /  0mm
05:34 21.5 °F /  -5.8 °C 18.2 °F /  -7.7 °C 30.41in /  1029.7hPa WSW 1.0mph /  1.6km/h 3.0mph /  4.8km/h 87% 0.00in /  0mm
05:39 21.4 °F /  -5.9 °C 18.1 °F /  -7.7 °C 30.42in /  1030hPa Calm   3.0mph /  4.8km/h 87% 0.00in /  0mm
05:45 21.5 °F /  -5.8 °C 18.2 °F /  -7.7 °C 30.42in /  1030hPa West 1.0mph /  1.6km/h 3.0mph /  4.8km/h 87% 0.00in /  0mm
05:50 21.5 °F /  -5.8 °C 18.2 °F /  -7.7 °C 30.42in /  1030hPa West 1.0mph /  1.6km/h 4.0mph /  6.4km/h 87% 0.00in /  0mm
05:55 21.5 °F /  -5.8 °C 18.2 °F /  -7.7 °C 30.42in /  1030hPa Calm   3.0mph /  4.8km/h 87% 0.00in /  0mm
05:59 21.5 °F /  -5.8 °C 18.2 °F /  -7.7 °C 30.42in /  1030hPa Calm   3.0mph /  4.8km/h 87% 0.00in /  0mm
06:05 21.5 °F /  -5.8 °C 18.2 °F /  -7.7 °C 30.42in /  1030hPa Calm     87% 0.00in /  0mm
06:10 21.3 °F /  -5.9 °C 18.0 °F /  -7.8 °C 30.43in /  1030.4hPa Calm     87% 0.00in /  0mm
06:15 21.4 °F /  -5.9 °C 18.1 °F /  -7.7 °C 30.42in /  1030hPa Calm     87% 0.00in /  0mm
06:20 21.3 °F /  -5.9 °C 18.0 °F /  -7.8 °C 30.43in /  1030.4hPa Calm     87% 0.00in /  0mm
06:25 21.5 °F /  -5.8 °C 18.2 °F /  -7.7 °C 30.43in /  1030.4hPa Calm     87% 0.00in /  0mm
06:29 21.6 °F /  -5.8 °C 18.3 °F /  -7.6 °C 30.42in /  1030hPa Calm     87% 0.00in /  0mm
06:34 21.9 °F /  -5.6 °C 18.6 °F /  -7.4 °C 30.43in /  1030.4hPa Calm     87% 0.00in /  0mm
06:39 22.1 °F /  -5.5 °C 18.8 °F /  -7.3 °C 30.43in /  1030.4hPa Calm     87% 0.00in /  0mm
06:44 22.1 °F /  -5.5 °C 18.8 °F /  -7.3 °C 30.43in /  1030.4hPa Calm     87% 0.00in /  0mm
06:49 22.2 °F /  -5.4 °C 18.9 °F /  -7.3 °C 30.43in /  1030.4hPa Calm     87% 0.00in /  0mm
06:55 22.4 °F /  -5.3 °C 19.1 °F /  -7.2 °C 30.43in /  1030.4hPa Calm     87% 0.00in /  0mm
07:00 22.5 °F /  -5.3 °C 19.2 °F /  -7.1 °C 30.43in /  1030.4hPa West 1.0mph /  1.6km/h 3.0mph /  4.8km/h 87% 0.00in /  0mm
07:04 22.8 °F /  -5.1 °C 19.5 °F /  -6.9 °C 30.43in /  1030.4hPa West 1.0mph /  1.6km/h 3.0mph /  4.8km/h 87% 0.00in /  0mm
07:10 22.9 °F /  -5.1 °C 19.3 °F /  -7.1 °C 30.43in /  1030.4hPa West 1.0mph /  1.6km/h 3.0mph /  4.8km/h 86% 0.00in /  0mm
07:15 23.1 °F /  -4.9 °C 19.5 °F /  -6.9 °C 30.44in /  1030.7hPa West 1.0mph /  1.6km/h 3.0mph /  4.8km/h 86% 0.00in /  0mm
07:20 23.2 °F /  -4.9 °C 19.6 °F /  -6.9 °C 30.44in /  1030.7hPa Calm   2.0mph /  3.2km/h 86% 0.00in /  0mm
07:25 23.3 °F /  -4.8 °C 19.7 °F /  -6.8 °C 30.44in /  1030.7hPa Calm   2.0mph /  3.2km/h 86% 0.00in /  0mm
07:30 23.5 °F /  -4.7 °C 19.9 °F /  -6.7 °C 30.44in /  1030.7hPa WSW 1.0mph /  1.6km/h 3.0mph /  4.8km/h 86% 0.00in /  0mm
07:34 23.7 °F /  -4.6 °C 19.9 °F /  -6.7 °C 30.44in /  1030.7hPa WSW 1.0mph /  1.6km/h 3.0mph /  4.8km/h 85% 0.00in /  0mm
07:39 23.8 °F /  -4.6 °C 19.9 °F /  -6.7 °C 30.44in /  1030.7hPa Calm     85% 0.00in /  0mm
07:44 24.0 °F /  -4.4 °C 20.1 °F /  -6.6 °C 30.44in /  1030.7hPa Calm     85% 0.00in /  0mm
07:49 24.0 °F /  -4.4 °C 20.1 °F /  -6.6 °C 30.44in /  1030.7hPa WSW 1.0mph /  1.6km/h 2.0mph /  3.2km/h 85% 0.00in /  0mm
07:54 24.2 °F /  -4.3 °C 20.1 °F /  -6.6 °C 30.44in /  1030.7hPa West 1.0mph /  1.6km/h 5.0mph /  8km/h 84% 0.00in /  0mm
07:59 24.3 °F /  -4.3 °C 20.2 °F /  -6.6 °C 30.44in /  1030.7hPa West 1.0mph /  1.6km/h 3.0mph /  4.8km/h 84% 0.00in /  0mm
08:04 24.4 °F /  -4.2 °C 20.3 °F /  -6.5 °C 30.44in /  1030.7hPa West 2.0mph /  3.2km/h 3.0mph /  4.8km/h 84% 0.00in /  0mm
08:09 24.5 °F /  -4.2 °C 20.4 °F /  -6.4 °C 30.44in /  1030.7hPa West 2.0mph /  3.2km/h 4.0mph /  6.4km/h 84% 0.00in /  0mm
08:15 24.6 °F /  -4.1 °C 20.2 °F /  -6.6 °C 30.45in /  1031hPa West 2.0mph /  3.2km/h 5.0mph /  8km/h 83% 0.00in /  0mm
08:20 24.7 °F /  -4.1 °C 20.3 °F /  -6.5 °C 30.45in /  1031hPa West 2.0mph /  3.2km/h 5.0mph /  8km/h 83% 0.00in /  0mm
08:25 24.8 °F /  -4 °C 20.7 °F /  -6.3 °C 30.45in /  1031hPa West 1.0mph /  1.6km/h 3.0mph /  4.8km/h 84% 0.00in /  0mm
08:30 24.9 °F /  -3.9 °C 20.5 °F /  -6.4 °C 30.45in /  1031hPa West 1.0mph /  1.6km/h 5.0mph /  8km/h 83% 0.00in /  0mm
08:35 25.0 °F /  -3.9 °C 20.6 °F /  -6.3 °C 30.45in /  1031hPa West 2.0mph /  3.2km/h 5.0mph /  8km/h 83% 0.00in /  0mm
08:39 25.2 °F /  -3.8 °C 21.0 °F /  -6.1 °C 30.45in /  1031hPa Calm   1.0mph /  1.6km/h 84% 0.00in /  0mm
08:44 25.4 °F /  -3.7 °C 21.0 °F /  -6.1 °C 30.45in /  1031hPa Calm   3.0mph /  4.8km/h 83% 0.00in /  0mm
08:49 25.6 °F /  -3.6 °C 21.2 °F /  -6 °C 30.45in /  1031hPa NW 1.0mph /  1.6km/h 2.0mph /  3.2km/h 83% 0.00in /  0mm
08:54 25.7 °F /  -3.5 °C 21.0 °F /  -6.1 °C 30.45in /  1031hPa Calm   2.0mph /  3.2km/h 82% 0.00in /  0mm
08:59 25.9 °F /  -3.4 °C 21.2 °F /  -6 °C 30.46in /  1031.4hPa NW 1.0mph /  1.6km/h 2.0mph /  3.2km/h 82% 0.00in /  0mm
09:05 26.1 °F /  -3.3 °C 21.4 °F /  -5.9 °C 30.46in /  1031.4hPa WNW 2.0mph /  3.2km/h 4.0mph /  6.4km/h 82% 0.00in /  0mm
09:09 26.1 °F /  -3.3 °C 21.4 °F /  -5.9 °C 30.46in /  1031.4hPa WNW 1.0mph /  1.6km/h 4.0mph /  6.4km/h 82% 0.00in /  0mm
09:14 26.4 °F /  -3.1 °C 21.7 °F /  -5.7 °C 30.46in /  1031.4hPa West 1.0mph /  1.6km/h 4.0mph /  6.4km/h 82% 0.00in /  0mm
09:19 26.6 °F /  -3 °C 21.6 °F /  -5.8 °C 30.46in /  1031.4hPa West 1.0mph /  1.6km/h 4.0mph /  6.4km/h 81% 0.00in /  0mm
09:25 27.1 °F /  -2.7 °C 22.0 °F /  -5.6 °C 30.47in /  1031.7hPa Calm   4.0mph /  6.4km/h 81% 0.00in /  0mm
09:30 27.3 °F /  -2.6 °C 22.2 °F /  -5.4 °C 30.47in /  1031.7hPa WNW 1.0mph /  1.6km/h 4.0mph /  6.4km/h 81% 0.00in /  0mm
09:34 27.4 °F /  -2.6 °C 22.0 °F /  -5.6 °C 30.47in /  1031.7hPa Calm   3.0mph /  4.8km/h 80% 0.00in /  0mm
09:39 27.6 °F /  -2.4 °C 22.5 °F /  -5.3 °C 30.47in /  1031.7hPa Calm   3.0mph /  4.8km/h 81% 0.00in /  0mm
09:44 27.7 °F /  -2.4 °C 22.3 °F /  -5.4 °C 30.47in /  1031.7hPa WNW 1.0mph /  1.6km/h 3.0mph /  4.8km/h 80% 0.00in /  0mm
09:49 27.7 °F /  -2.4 °C 22.0 °F /  -5.6 °C 30.47in /  1031.7hPa WNW 2.0mph /  3.2km/h 3.0mph /  4.8km/h 79% 0.00in /  0mm
09:54 27.9 °F /  -2.3 °C 22.2 °F /  -5.4 °C 30.47in /  1031.7hPa WSW 2.0mph /  3.2km/h 3.0mph /  4.8km/h 79% 0.00in /  0mm
09:59 28.3 °F /  -2.1 °C 22.3 °F /  -5.4 °C 30.47in /  1031.7hPa WSW 1.0mph /  1.6km/h 3.0mph /  4.8km/h 78% 0.00in /  0mm
10:04 28.6 °F /  -1.9 °C 22.3 °F /  -5.4 °C 30.47in /  1031.7hPa WSW 2.0mph /  3.2km/h 3.0mph /  4.8km/h 77% 0.00in /  0mm
10:10 29.0 °F /  -1.7 °C 22.7 °F /  -5.2 °C 30.47in /  1031.7hPa WSW 3.0mph /  4.8km/h 4.0mph /  6.4km/h 77% 0.00in /  0mm
10:15 29.2 °F /  -1.6 °C 22.3 °F /  -5.4 °C 30.47in /  1031.7hPa WSW 3.0mph /  4.8km/h 6.0mph /  9.7km/h 75% 0.00in /  0mm
10:19 29.2 °F /  -1.6 °C 21.6 °F /  -5.8 °C 30.47in /  1031.7hPa WSW 3.0mph /  4.8km/h 6.0mph /  9.7km/h 73% 0.00in /  0mm
10:24 29.2 °F /  -1.6 °C 21.3 °F /  -5.9 °C 30.47in /  1031.7hPa WSW 2.0mph /  3.2km/h 6.0mph /  9.7km/h 72% 0.00in /  0mm
10:29 29.5 °F /  -1.4 °C 22.2 °F /  -5.4 °C 30.47in /  1031.7hPa WSW 3.0mph /  4.8km/h 3.0mph /  4.8km/h 74% 0.00in /  0mm
10:34 29.6 °F /  -1.3 °C 22.0 °F /  -5.6 °C 30.47in /  1031.7hPa West 4.0mph /  6.4km/h 5.0mph /  8km/h 73% 0.00in /  0mm
10:39 29.9 °F /  -1.2 °C 22.6 °F /  -5.2 °C 30.47in /  1031.7hPa NW 1.0mph /  1.6km/h 5.0mph /  8km/h 74% 0.00in /  0mm
10:45 29.7 °F /  -1.3 °C 21.4 °F /  -5.9 °C 30.47in /  1031.7hPa West 2.0mph /  3.2km/h 5.0mph /  8km/h 71% 0.00in /  0mm
10:49 30.4 °F /  -0.9 °C 22.8 °F /  -5.1 °C 30.46in /  1031.4hPa SW 3.0mph /  4.8km/h 4.0mph /  6.4km/h 73% 0.00in /  0mm
10:54 30.7 °F /  -0.7 °C 22.7 °F /  -5.2 °C 30.46in /  1031.4hPa West 2.0mph /  3.2km/h 5.0mph /  8km/h 72% 0.00in /  0mm
10:59 31.1 °F /  -0.5 °C 22.8 °F /  -5.1 °C 30.46in /  1031.4hPa West 3.0mph /  4.8km/h 5.0mph /  8km/h 71% 0.00in /  0mm
11:04 30.9 °F /  -0.6 °C 22.3 °F /  -5.4 °C 30.45in /  1031hPa NNW 2.0mph /  3.2km/h 4.0mph /  6.4km/h 70% 0.00in /  0mm
11:10 30.8 °F /  -0.7 °C 21.8 °F /  -5.7 °C 30.45in /  1031hPa WSW 4.0mph /  6.4km/h 5.0mph /  8km/h 69% 0.00in /  0mm
11:15 30.5 °F /  -0.8 °C 21.5 °F /  -5.8 °C 30.45in /  1031hPa SW 3.0mph /  4.8km/h 6.0mph /  9.7km/h 69% 0.00in /  0mm
11:19 30.2 °F /  -1 °C 21.2 °F /  -6 °C 30.45in /  1031hPa SW 3.0mph /  4.8km/h 6.0mph /  9.7km/h 69% 0.00in /  0mm
11:24 30.4 °F /  -0.9 °C 21.4 °F /  -5.9 °C 30.45in /  1031hPa SW 3.0mph /  4.8km/h 6.0mph /  9.7km/h 69% 0.00in /  0mm
11:29 30.3 °F /  -0.9 °C 21.0 °F /  -6.1 °C 30.45in /  1031hPa SW 3.0mph /  4.8km/h 7.0mph /  11.3km/h 68% 0.00in /  0mm
11:34 30.6 °F /  -0.8 °C 21.6 °F /  -5.8 °C 30.45in /  1031hPa SW 3.0mph /  4.8km/h 7.0mph /  11.3km/h 69% 0.00in /  0mm
11:40 31.2 °F /  -0.4 °C 21.9 °F /  -5.6 °C 30.44in /  1030.7hPa WSW 3.0mph /  4.8km/h 8.0mph /  12.9km/h 68% 0.00in /  0mm
11:44 31.9 °F /  -0.1 °C 22.5 °F /  -5.3 °C 30.44in /  1030.7hPa West 2.0mph /  3.2km/h 5.0mph /  8km/h 68% 0.00in /  0mm
11:49 31.0 °F /  -0.6 °C 21.3 °F /  -5.9 °C 30.44in /  1030.7hPa West 2.0mph /  3.2km/h 7.0mph /  11.3km/h 67% 0.00in /  0mm
11:54 30.9 °F /  -0.6 °C 21.6 °F /  -5.8 °C 30.44in /  1030.7hPa NNW 2.0mph /  3.2km/h 5.0mph /  8km/h 68% 0.00in /  0mm
11:59 31.1 °F /  -0.5 °C 21.1 °F /  -6.1 °C 30.44in /  1030.7hPa NNW 1.0mph /  1.6km/h 5.0mph /  8km/h 66% 0.00in /  0mm
12:04 31.1 °F /  -0.5 °C 21.8 °F /  -5.7 °C 30.44in /  1030.7hPa WNW 4.0mph /  6.4km/h 4.0mph /  6.4km/h 68% 0.00in /  0mm
12:09 31.4 °F /  -0.3 °C 21.7 °F /  -5.7 °C 30.44in /  1030.7hPa NNW 1.0mph /  1.6km/h 4.0mph /  6.4km/h 67% 0.00in /  0mm
12:14 31.2 °F /  -0.4 °C 21.2 °F /  -6 °C 30.44in /  1030.7hPa WNW 2.0mph /  3.2km/h 4.0mph /  6.4km/h 66% 0.00in /  0mm
12:19 31.1 °F /  -0.5 °C 21.4 °F /  -5.9 °C 30.43in /  1030.4hPa NW 2.0mph /  3.2km/h 5.0mph /  8km/h 67% 0.00in /  0mm
12:24 31.1 °F /  -0.5 °C 21.1 °F /  -6.1 °C 30.43in /  1030.4hPa NW 2.0mph /  3.2km/h 6.0mph /  9.7km/h 66% 0.00in /  0mm
12:29 31.2 °F /  -0.4 °C 21.5 °F /  -5.8 °C 30.43in /  1030.4hPa NW 3.0mph /  4.8km/h 6.0mph /  9.7km/h 67% 0.00in /  0mm
12:34 31.1 °F /  -0.5 °C 21.4 °F /  -5.9 °C 30.43in /  1030.4hPa WNW 3.0mph /  4.8km/h 7.0mph /  11.3km/h 67% 0.00in /  0mm
12:40 31.0 °F /  -0.6 °C 21.0 °F /  -6.1 °C 30.42in /  1030hPa NW 2.0mph /  3.2km/h 8.0mph /  12.9km/h 66% 0.00in /  0mm
12:45 31.1 °F /  -0.5 °C 21.4 °F /  -5.9 °C 30.42in /  1030hPa WSW 2.0mph /  3.2km/h 5.0mph /  8km/h 67% 0.00in /  0mm
12:50 30.9 °F /  -0.6 °C 21.2 °F /  -6 °C 30.42in /  1030hPa West 2.0mph /  3.2km/h 4.0mph /  6.4km/h 67% 0.00in /  0mm
12:54 31.4 °F /  -0.3 °C 21.7 °F /  -5.7 °C 30.42in /  1030hPa WNW 2.0mph /  3.2km/h 5.0mph /  8km/h 67% 0.00in /  0mm
12:59 31.4 °F /  -0.3 °C 21.0 °F /  -6.1 °C 30.42in /  1030hPa NNW 4.0mph /  6.4km/h 6.0mph /  9.7km/h 65% 0.01in /  0.25mm
13:04 31.4 °F /  -0.3 °C 21.0 °F /  -6.1 °C 30.42in /  1030hPa WNW 2.0mph /  3.2km/h 5.0mph /  8km/h 65% 0.01in /  0.25mm
13:09 31.1 °F /  -0.5 °C 21.1 °F /  -6.1 °C 30.42in /  1030hPa West 1.0mph /  1.6km/h 3.0mph /  4.8km/h 66% 0.01in /  0.25mm
13:14 31.4 °F /  -0.3 °C 21.3 °F /  -5.9 °C 30.42in /  1030hPa West 4.0mph /  6.4km/h 5.0mph /  8km/h 66% 0.01in /  0.25mm
13:19 31.1 °F /  -0.5 °C 21.1 °F /  -6.1 °C 30.42in /  1030hPa WNW 3.0mph /  4.8km/h 5.0mph /  8km/h 66% 0.01in /  0.25mm
13:24 31.3 °F /  -0.4 °C 21.6 °F /  -5.8 °C 30.42in /  1030hPa NW 2.0mph /  3.2km/h 5.0mph /  8km/h 67% 0.01in /  0.25mm
13:29 31.1 °F /  -0.5 °C 20.7 °F /  -6.3 °C 30.42in /  1030hPa WNW 3.0mph /  4.8km/h 6.0mph /  9.7km/h 65% 0.01in /  0.25mm
13:34 31.1 °F /  -0.5 °C 21.1 °F /  -6.1 °C 30.42in /  1030hPa WNW 3.0mph /  4.8km/h 6.0mph /  9.7km/h 66% 0.01in /  0.25mm
13:39 31.2 °F /  -0.4 °C 21.2 °F /  -6 °C 30.42in /  1030hPa West 3.0mph /  4.8km/h 6.0mph /  9.7km/h 66% 0.01in /  0.25mm
13:40 31.2 °F /  -0.4 °C 21.2 °F /  -6 °C 30.42in /  1030hPa WSW 6.0mph /  9.7km/h 6.0mph /  9.7km/h 66% 0.01in /  0.25mm
13:49 30.8 °F /  -0.7 °C 20.8 °F /  -6.2 °C 30.42in /  1030hPa WSW 5.0mph /  8km/h 6.0mph /  9.7km/h 66% 0.01in /  0.25mm
13:54 30.7 °F /  -0.7 °C 20.7 °F /  -6.3 °C 30.42in /  1030hPa West 3.0mph /  4.8km/h 7.0mph /  11.3km/h 66% 0.01in /  0.25mm
13:59 30.7 °F /  -0.7 °C 21.0 °F /  -6.1 °C 30.42in /  1030hPa West 3.0mph /  4.8km/h 7.0mph /  11.3km/h 67% 0.00in /  0mm
14:04 30.7 °F /  -0.7 °C 21.7 °F /  -5.7 °C 30.42in /  1030hPa WSW 3.0mph /  4.8km/h 5.0mph /  8km/h 69% 0.00in /  0mm
14:09 30.8 °F /  -0.7 °C 22.2 °F /  -5.4 °C 30.42in /  1030hPa WSW 2.0mph /  3.2km/h 5.0mph /  8km/h 70% 0.00in /  0mm
14:14 31.0 °F /  -0.6 °C 22.0 °F /  -5.6 °C 30.42in /  1030hPa WNW 4.0mph /  6.4km/h 5.0mph /  8km/h 69% 0.00in /  0mm
14:19 30.8 °F /  -0.7 °C 21.8 °F /  -5.7 °C 30.42in /  1030hPa WSW 4.0mph /  6.4km/h 8.0mph /  12.9km/h 69% 0.00in /  0mm
14:24 30.7 °F /  -0.7 °C 21.7 °F /  -5.7 °C 30.42in /  1030hPa WSW 4.0mph /  6.4km/h 8.0mph /  12.9km/h 69% 0.00in /  0mm
14:29 30.8 °F /  -0.7 °C 21.5 °F /  -5.8 °C 30.42in /  1030hPa WSW 3.0mph /  4.8km/h 7.0mph /  11.3km/h 68% 0.00in /  0mm
14:34 30.8 °F /  -0.7 °C 21.5 °F /  -5.8 °C 30.42in /  1030hPa West 3.0mph /  4.8km/h 7.0mph /  11.3km/h 68% 0.00in /  0mm
14:39 30.9 °F /  -0.6 °C 21.9 °F /  -5.6 °C 30.42in /  1030hPa WSW 3.0mph /  4.8km/h 6.0mph /  9.7km/h 69% 0.00in /  0mm
14:44 30.7 °F /  -0.7 °C 22.1 °F /  -5.5 °C 30.42in /  1030hPa WSW 4.0mph /  6.4km/h 5.0mph /  8km/h 70% 0.00in /  0mm
14:49 30.4 °F /  -0.9 °C 21.8 °F /  -5.7 °C 30.42in /  1030hPa SSE 8.0mph /  12.9km/h 9.0mph /  14.5km/h 70% 0.00in /  0mm
14:54 30.3 °F /  -0.9 °C 22.0 °F /  -5.6 °C 30.42in /  1030hPa SSW 3.0mph /  4.8km/h 7.0mph /  11.3km/h 71% 0.00in /  0mm
14:59 30.3 °F /  -0.9 °C 21.7 °F /  -5.7 °C 30.42in /  1030hPa SW 4.0mph /  6.4km/h 8.0mph /  12.9km/h 70% 0.00in /  0mm
15:04 30.3 °F /  -0.9 °C 22.0 °F /  -5.6 °C 30.42in /  1030hPa SW 4.0mph /  6.4km/h 7.0mph /  11.3km/h 71% 0.00in /  0mm
15:09 30.3 °F /  -0.9 °C 21.7 °F /  -5.7 °C 30.42in /  1030hPa SSW 7.0mph /  11.3km/h 8.0mph /  12.9km/h 70% 0.00in /  0mm
15:14 30.3 °F /  -0.9 °C 22.0 °F /  -5.6 °C 30.42in /  1030hPa SSE 4.0mph /  6.4km/h 7.0mph /  11.3km/h 71% 0.00in /  0mm
15:19 30.1 °F /  -1.1 °C 22.2 °F /  -5.4 °C 30.42in /  1030hPa SSW 7.0mph /  11.3km/h 8.0mph /  12.9km/h 72% 0.00in /  0mm
15:24 30.3 °F /  -0.9 °C 22.4 °F /  -5.3 °C 30.42in /  1030hPa SSW 7.0mph /  11.3km/h 7.0mph /  11.3km/h 72% 0.00in /  0mm
15:29 30.3 °F /  -0.9 °C 22.0 °F /  -5.6 °C 30.42in /  1030hPa SW 5.0mph /  8km/h 8.0mph /  12.9km/h 71% 0.00in /  0mm
15:34 30.2 °F /  -1 °C 22.3 °F /  -5.4 °C 30.41in /  1029.7hPa SW 5.0mph /  8km/h 8.0mph /  12.9km/h 72% 0.00in /  0mm
15:39 30.1 °F /  -1.1 °C 21.8 °F /  -5.7 °C 30.42in /  1030hPa SSW 4.0mph /  6.4km/h 8.0mph /  12.9km/h 71% 0.00in /  0mm
15:44 30.1 °F /  -1.1 °C 22.2 °F /  -5.4 °C 30.42in /  1030hPa SW 4.0mph /  6.4km/h 8.0mph /  12.9km/h 72% 0.00in /  0mm
15:49 30.1 °F /  -1.1 °C 21.8 °F /  -5.7 °C 30.41in /  1029.7hPa SW 4.0mph /  6.4km/h 8.0mph /  12.9km/h 71% 0.00in /  0mm
15:54 30.0 °F /  -1.1 °C 21.7 °F /  -5.7 °C 30.42in /  1030hPa SW 4.0mph /  6.4km/h 6.0mph /  9.7km/h 71% 0.00in /  0mm
15:59 30.0 °F /  -1.1 °C 21.4 °F /  -5.9 °C 30.42in /  1030hPa SW 4.0mph /  6.4km/h 7.0mph /  11.3km/h 70% 0.00in /  0mm
16:04 29.9 °F /  -1.2 °C 21.6 °F /  -5.8 °C 30.42in /  1030hPa SW 3.0mph /  4.8km/h 7.0mph /  11.3km/h 71% 0.00in /  0mm
16:09 29.9 °F /  -1.2 °C 21.0 °F /  -6.1 °C 30.41in /  1029.7hPa SSW 2.0mph /  3.2km/h 5.0mph /  8km/h 69% 0.00in /  0mm
16:14 29.8 °F /  -1.2 °C 21.2 °F /  -6 °C 30.41in /  1029.7hPa SE 3.0mph /  4.8km/h 6.0mph /  9.7km/h 70% 0.00in /  0mm
16:19 29.8 °F /  -1.2 °C 21.2 °F /  -6 °C 30.42in /  1030hPa SSW 5.0mph /  8km/h 6.0mph /  9.7km/h 70% 0.00in /  0mm
16:24 30.0 °F /  -1.1 °C 21.1 °F /  -6.1 °C 30.42in /  1030hPa WNW 1.0mph /  1.6km/h 5.0mph /  8km/h 69% 0.00in /  0mm
16:29 30.2 °F /  -1 °C 21.2 °F /  -6 °C 30.42in /  1030hPa South 4.0mph /  6.4km/h 7.0mph /  11.3km/h 69% 0.00in /  0mm
16:34 30.2 °F /  -1 °C 21.2 °F /  -6 °C 30.42in /  1030hPa SW 3.0mph /  4.8km/h 8.0mph /  12.9km/h 69% 0.00in /  0mm
16:39 30.1 °F /  -1.1 °C 21.5 °F /  -5.8 °C 30.42in /  1030hPa SW 3.0mph /  4.8km/h 8.0mph /  12.9km/h 70% 0.00in /  0mm
16:44 29.9 °F /  -1.2 °C 21.3 °F /  -5.9 °C 30.42in /  1030hPa SW 3.0mph /  4.8km/h 7.0mph /  11.3km/h 70% 0.00in /  0mm
16:49 29.7 °F /  -1.3 °C 20.8 °F /  -6.2 °C 30.41in /  1029.7hPa SSW 2.0mph /  3.2km/h 5.0mph /  8km/h 69% 0.00in /  0mm
16:54 29.4 °F /  -1.4 °C 21.2 °F /  -6 °C 30.41in /  1029.7hPa SW 2.0mph /  3.2km/h 5.0mph /  8km/h 71% 0.00in /  0mm
16:59 29.1 °F /  -1.6 °C 21.2 °F /  -6 °C 30.42in /  1030hPa SW 1.0mph /  1.6km/h 6.0mph /  9.7km/h 72% 0.00in /  0mm
17:04 28.8 °F /  -1.8 °C 21.2 °F /  -6 °C 30.42in /  1030hPa SW 3.0mph /  4.8km/h 6.0mph /  9.7km/h 73% 0.00in /  0mm
17:09 28.6 °F /  -1.9 °C 21.4 °F /  -5.9 °C 30.42in /  1030hPa SW 3.0mph /  4.8km/h 6.0mph /  9.7km/h 74% 0.00in /  0mm
17:14 28.4 °F /  -2 °C 21.2 °F /  -6 °C 30.42in /  1030hPa SSW 3.0mph /  4.8km/h 6.0mph /  9.7km/h 74% 0.00in /  0mm
17:19 28.2 °F /  -2.1 °C 21.3 °F /  -5.9 °C 30.41in /  1029.7hPa SW 1.0mph /  1.6km/h 4.0mph /  6.4km/h 75% 0.00in /  0mm
17:24 27.9 °F /  -2.3 °C 21.0 °F /  -6.1 °C 30.42in /  1030hPa SW 2.0mph /  3.2km/h 3.0mph /  4.8km/h 75% 0.00in /  0mm
17:29 27.7 °F /  -2.4 °C 21.1 °F /  -6.1 °C 30.42in /  1030hPa Calm   5.0mph /  8km/h 76% 0.00in /  0mm
17:34 27.4 °F /  -2.6 °C 21.1 °F /  -6.1 °C 30.42in /  1030hPa WSW 1.0mph /  1.6km/h 5.0mph /  8km/h 77% 0.00in /  0mm
17:39 27.2 °F /  -2.7 °C 20.9 °F /  -6.2 °C 30.42in /  1030hPa Calm   2.0mph /  3.2km/h 77% 0.00in /  0mm
17:44 26.9 °F /  -2.8 °C 21.0 °F /  -6.1 °C 30.42in /  1030hPa Calm   2.0mph /  3.2km/h 78% 0.00in /  0mm
17:49 26.7 °F /  -2.9 °C 20.8 °F /  -6.2 °C 30.42in /  1030hPa Calm   1.0mph /  1.6km/h 78% 0.00in /  0mm
17:54 26.5 °F /  -3.1 °C 20.9 °F /  -6.2 °C 30.42in /  1030hPa Calm     79% 0.00in /  0mm
17:59 26.3 °F /  -3.2 °C 20.4 °F /  -6.4 °C 30.42in /  1030hPa Calm     78% 0.00in /  0mm
18:04 25.6 °F /  -3.6 °C 20.0 °F /  -6.7 °C 30.43in /  1030.4hPa Calm     79% 0.00in /  0mm
18:09 25.4 °F /  -3.7 °C 20.4 °F /  -6.4 °C 30.43in /  1030.4hPa Calm     81% 0.00in /  0mm
18:14 25.4 °F /  -3.7 °C 20.1 °F /  -6.6 °C 30.42in /  1030hPa Calm     80% 0.00in /  0mm
18:19 24.9 °F /  -3.9 °C 19.6 °F /  -6.9 °C 30.43in /  1030.4hPa Calm     80% 0.00in /  0mm
18:24 24.7 °F /  -4.1 °C 20.0 °F /  -6.7 °C 30.43in /  1030.4hPa Calm     82% 0.00in /  0mm
18:29 24.5 °F /  -4.2 °C 19.8 °F /  -6.8 °C 30.43in /  1030.4hPa Calm     82% 0.00in /  0mm
18:34 24.2 °F /  -4.3 °C 19.8 °F /  -6.8 °C 30.43in /  1030.4hPa Calm     83% 0.00in /  0mm
18:39 24.1 °F /  -4.4 °C 19.7 °F /  -6.8 °C 30.43in /  1030.4hPa Calm     83% 0.00in /  0mm
18:44 23.5 °F /  -4.7 °C 19.1 °F /  -7.2 °C 30.43in /  1030.4hPa Calm     83% 0.00in /  0mm
18:49 23.4 °F /  -4.8 °C 19.0 °F /  -7.2 °C 30.42in /  1030hPa Calm     83% 0.00in /  0mm
18:54 23.3 °F /  -4.8 °C 19.2 °F /  -7.1 °C 30.42in /  1030hPa Calm     84% 0.00in /  0mm
18:59 23.2 °F /  -4.9 °C 19.1 °F /  -7.2 °C 30.42in /  1030hPa Calm     84% 0.00in /  0mm
19:04 22.9 °F /  -5.1 °C 18.8 °F /  -7.3 °C 30.41in /  1029.7hPa Calm     84% 0.00in /  0mm
19:09 22.7 °F /  -5.2 °C 18.6 °F /  -7.4 °C 30.42in /  1030hPa Calm     84% 0.00in /  0mm
19:14 22.7 °F /  -5.2 °C 18.6 °F /  -7.4 °C 30.42in /  1030hPa Calm     84% 0.00in /  0mm
19:19 22.5 °F /  -5.3 °C 18.4 °F /  -7.6 °C 30.42in /  1030hPa Calm     84% 0.00in /  0mm
19:24 22.6 °F /  -5.2 °C 18.8 °F /  -7.3 °C 30.42in /  1030hPa Calm     85% 0.00in /  0mm
19:29 22.3 °F /  -5.4 °C 18.2 °F /  -7.7 °C 30.42in /  1030hPa Calm     84% 0.00in /  0mm
19:34 22.2 °F /  -5.4 °C 18.4 °F /  -7.6 °C 30.42in /  1030hPa Calm     85% 0.00in /  0mm
19:39 22.3 °F /  -5.4 °C 18.5 °F /  -7.5 °C 30.42in /  1030hPa Calm     85% 0.00in /  0mm
19:44 22.5 °F /  -5.3 °C 18.7 °F /  -7.4 °C 30.41in /  1029.7hPa Calm     85% 0.00in /  0mm
19:49 22.7 °F /  -5.2 °C 19.1 °F /  -7.2 °C 30.41in /  1029.7hPa Calm     86% 0.00in /  0mm
19:54 22.9 °F /  -5.1 °C 19.1 °F /  -7.2 °C 30.41in /  1029.7hPa Calm     85% 0.00in /  0mm
19:59 22.7 °F /  -5.2 °C 18.6 °F /  -7.4 °C 30.41in /  1029.7hPa Calm     84% 0.00in /  0mm
20:04 22.3 °F /  -5.4 °C 18.2 °F /  -7.7 °C 30.41in /  1029.7hPa Calm     84% 0.00in /  0mm
20:09 22.3 °F /  -5.4 °C 18.5 °F /  -7.5 °C 30.42in /  1030hPa Calm     85% 0.00in /  0mm
20:14 22.2 °F /  -5.4 °C 18.4 °F /  -7.6 °C 30.42in /  1030hPa Calm     85% 0.00in /  0mm
20:19 22.0 °F /  -5.6 °C 18.2 °F /  -7.7 °C 30.42in /  1030hPa Calm     85% 0.00in /  0mm
20:24 21.8 °F /  -5.7 °C 18.0 °F /  -7.8 °C 30.42in /  1030hPa Calm     85% 0.00in /  0mm
20:29 21.8 °F /  -5.7 °C 18.3 °F /  -7.6 °C 30.41in /  1029.7hPa Calm     86% 0.00in /  0mm
20:34 22.4 °F /  -5.3 °C 19.1 °F /  -7.2 °C 30.41in /  1029.7hPa Calm     87% 0.00in /  0mm
20:39 22.2 °F /  -5.4 °C 18.7 °F /  -7.4 °C 30.41in /  1029.7hPa Calm     86% 0.00in /  0mm
20:44 21.7 °F /  -5.7 °C 18.2 °F /  -7.7 °C 30.41in /  1029.7hPa Calm     86% 0.00in /  0mm
20:49 21.7 °F /  -5.7 °C 18.2 °F /  -7.7 °C 30.41in /  1029.7hPa Calm     86% 0.00in /  0mm
20:54 22.0 °F /  -5.6 °C 18.5 °F /  -7.5 °C 30.41in /  1029.7hPa Calm     86% 0.00in /  0mm
20:59 22.1 °F /  -5.5 °C 18.6 °F /  -7.4 °C 30.41in /  1029.7hPa Calm     86% 0.00in /  0mm
21:04 21.8 °F /  -5.7 °C 18.3 °F /  -7.6 °C 30.42in /  1030hPa Calm     86% 0.00in /  0mm
21:10 21.9 °F /  -5.6 °C 18.6 °F /  -7.4 °C 30.41in /  1029.7hPa Calm     87% 0.00in /  0mm
21:19 21.9 °F /  -5.6 °C 18.6 °F /  -7.4 °C 30.42in /  1030hPa Calm     87% 0.00in /  0mm
21:24 21.7 °F /  -5.7 °C 18.2 °F /  -7.7 °C 30.42in /  1030hPa Calm     86% 0.00in /  0mm
21:29 21.5 °F /  -5.8 °C 18.2 °F /  -7.7 °C 30.42in /  1030hPa Calm     87% 0.00in /  0mm
21:34 21.5 °F /  -5.8 °C 18.2 °F /  -7.7 °C 30.42in /  1030hPa Calm     87% 0.00in /  0mm
21:39 21.3 °F /  -5.9 °C 18.0 °F /  -7.8 °C 30.42in /  1030hPa Calm     87% 0.00in /  0mm
21:44 21.5 °F /  -5.8 °C 18.2 °F /  -7.7 °C 30.42in /  1030hPa Calm     87% 0.00in /  0mm
21:49 21.5 °F /  -5.8 °C 18.5 °F /  -7.5 °C 30.42in /  1030hPa Calm     88% 0.00in /  0mm
21:54 21.5 °F /  -5.8 °C 18.2 °F /  -7.7 °C 30.42in /  1030hPa Calm     87% 0.00in /  0mm
21:59 21.6 °F /  -5.8 °C 18.6 °F /  -7.4 °C 30.42in /  1030hPa Calm     88% 0.00in /  0mm
22:04 21.7 °F /  -5.7 °C 18.7 °F /  -7.4 °C 30.42in /  1030hPa Calm     88% 0.00in /  0mm
22:09 21.7 °F /  -5.7 °C 18.4 °F /  -7.6 °C 30.42in /  1030hPa Calm     87% 0.00in /  0mm
22:14 21.6 °F /  -5.8 °C 18.3 °F /  -7.6 °C 30.41in /  1029.7hPa Calm     87% 0.00in /  0mm
22:19 21.0 °F /  -6.1 °C 17.5 °F /  -8.1 °C 30.41in /  1029.7hPa Calm     86% 0.00in /  0mm
22:24 20.8 °F /  -6.2 °C 17.5 °F /  -8.1 °C 30.41in /  1029.7hPa Calm   3.0mph /  4.8km/h 87% 0.00in /  0mm
22:29 21.1 °F /  -6.1 °C 18.1 °F /  -7.7 °C 30.41in /  1029.7hPa South 1.0mph /  1.6km/h 4.0mph /  6.4km/h 88% 0.00in /  0mm
22:34 21.4 °F /  -5.9 °C 18.4 °F /  -7.6 °C 30.41in /  1029.7hPa Calm   2.0mph /  3.2km/h 88% 0.00in /  0mm
22:39 21.5 °F /  -5.8 °C 18.5 °F /  -7.5 °C 30.41in /  1029.7hPa Calm     88% 0.00in /  0mm
22:44 21.5 °F /  -5.8 °C 18.2 °F /  -7.7 °C 30.41in /  1029.7hPa Calm   2.0mph /  3.2km/h 87% 0.00in /  0mm
22:49 21.5 °F /  -5.8 °C 18.2 °F /  -7.7 °C 30.41in /  1029.7hPa Calm   3.0mph /  4.8km/h 87% 0.00in /  0mm
22:54 21.2 °F /  -6 °C 17.9 °F /  -7.8 °C 30.41in /  1029.7hPa South 1.0mph /  1.6km/h 3.0mph /  4.8km/h 87% 0.00in /  0mm
22:59 21.1 °F /  -6.1 °C 17.8 °F /  -7.9 °C 30.41in /  1029.7hPa Calm   1.0mph /  1.6km/h 87% 0.00in /  0mm
23:04 20.8 °F /  -6.2 °C 17.5 °F /  -8.1 °C 30.41in /  1029.7hPa Calm   1.0mph /  1.6km/h 87% 0.00in /  0mm
23:09 20.6 °F /  -6.3 °C 17.3 °F /  -8.2 °C 30.41in /  1029.7hPa Calm     87% 0.00in /  0mm
23:14 20.2 °F /  -6.6 °C 17.0 °F /  -8.3 °C 30.41in /  1029.7hPa Calm     87% 0.00in /  0mm
23:19 20.1 °F /  -6.6 °C 16.9 °F /  -8.4 °C 30.41in /  1029.7hPa Calm   1.0mph /  1.6km/h 87% 0.00in /  0mm
23:24 20.1 °F /  -6.6 °C 16.9 °F /  -8.4 °C 30.41in /  1029.7hPa Calm   2.0mph /  3.2km/h 87% 0.00in /  0mm
23:29 20.1 °F /  -6.6 °C 17.1 °F /  -8.3 °C 30.41in /  1029.7hPa Calm     88% 0.00in /  0mm
23:34 20.1 °F /  -6.6 °C 17.1 °F /  -8.3 °C 30.41in /  1029.7hPa Calm     88% 0.00in /  0mm
23:39 20.2 °F /  -6.6 °C 17.2 °F /  -8.2 °C 30.41in /  1029.7hPa Calm     88% 0.00in /  0mm
23:44 20.1 °F /  -6.6 °C 17.1 °F /  -8.3 °C 30.41in /  1029.7hPa Calm     88% 0.00in /  0mm
23:49 20.0 °F /  -6.7 °C 17.0 °F /  -8.3 °C 30.41in /  1029.7hPa Calm     88% 0.00in /  0mm
23:54 20.4 °F /  -6.4 °C 17.4 °F /  -8.1 °C 30.41in /  1029.7hPa Calm     88% 0.00in /  0mm
23:59 20.4 °F /  -6.4 °C 17.4 °F /  -8.1 °C 30.40in /  1029.3hPa Calm     88% 0.00in /  0mm
Buffalo, New York, USA
Compliments of Weather Underground - 2.5 mb